Time;durP1;ratioP1;P1;durP2;ratioP2;P2;SDS_P1;SDS_P2;PMS_P1;PMS_P2;Temp;Humidity;BMP_temperature;BMP_pressure;BME280_temperature;BME280_humidity;BME280_pressure;Samples;Min_cycle;Max_cycle;Signal;HPM_P1;HPM_P2
2022/06/26 00:00:45;;;;;;;6.68;4.07;;;11.30;93.10;;;;;;5051866;28;20106;-67
2022/06/26 00:03:13;;;;;;;14.45;4.30;;;11.40;92.20;;;;;;5051864;28;20017;-67
2022/06/26 00:05:40;;;;;;;13.05;4.07;;;11.60;92.00;;;;;;5052194;28;20033;-67
2022/06/26 00:08:08;;;;;;;10.02;5.40;;;11.70;91.60;;;;;;5050716;28;20095;-67
2022/06/26 00:10:35;;;;;;;6.63;4.00;;;11.90;91.90;;;;;;5051458;28;20075;-67
2022/06/26 00:13:02;;;;;;;6.20;4.43;;;12.10;91.30;;;;;;5051420;28;20036;-67
2022/06/26 00:15:30;;;;;;;6.05;4.10;;;12.30;90.70;;;;;;5051186;28;20056;-67
2022/06/26 00:17:57;;;;;;;9.30;4.97;;;12.40;90.90;;;;;;5051630;28;20024;-66
2022/06/26 00:20:24;;;;;;;9.65;4.88;;;12.50;90.80;;;;;;5050356;28;20071;-66
2022/06/26 00:22:51;;;;;;;9.52;4.40;;;12.60;90.30;;;;;;5051498;28;20028;-67
2022/06/26 00:25:19;;;;;;;9.35;4.32;;;12.70;90.50;;;;;;5051230;28;20389;-67
2022/06/26 00:27:46;;;;;;;6.00;3.47;;;12.80;91.00;;;;;;5051361;28;20051;-67
2022/06/26 00:30:13;;;;;;;8.30;4.57;;;13.00;90.50;;;;;;5051188;28;20071;-67
2022/06/26 00:32:41;;;;;;;5.78;3.85;;;13.10;88.80;;;;;;5051833;28;20021;-67
2022/06/26 00:35:10;;;;;;;6.07;3.30;;;13.20;88.00;;;;;;5051710;28;20100;-67
2022/06/26 00:37:37;;;;;;;9.60;4.55;;;13.30;85.60;;;;;;5051191;28;20102;-66
2022/06/26 00:40:05;;;;;;;9.50;3.78;;;13.40;87.30;;;;;;5051177;28;20033;-66
2022/06/26 00:42:32;;;;;;;7.68;3.33;;;13.50;89.60;;;;;;5049791;28;20021;-67
2022/06/26 00:44:59;;;;;;;6.40;3.70;;;13.70;85.70;;;;;;5051016;28;20029;-67
2022/06/26 00:47:27;;;;;;;8.60;4.20;;;13.80;86.40;;;;;;5050994;28;20021;-67
2022/06/26 00:49:54;;;;;;;8.45;4.00;;;14.00;87.10;;;;;;5050819;28;20170;-67
2022/06/26 00:52:22;;;;;;;5.72;3.55;;;14.10;86.10;;;;;;5050847;28;20017;-67
2022/06/26 00:54:51;;;;;;;8.68;3.22;;;14.20;83.90;;;;;;5050850;28;20436;-67
2022/06/26 00:57:22;;;;;;;6.75;3.67;;;14.30;82.80;;;;;;5050657;28;20029;-67
2022/06/26 00:59:49;;;;;;;4.75;3.92;;;14.40;84.30;;;;;;5050613;28;20059;-67
2022/06/26 01:02:17;;;;;;;8.07;3.72;;;14.50;83.90;;;;;;5050609;28;20021;-67
2022/06/26 01:04:44;;;;;;;10.07;4.18;;;14.60;84.30;;;;;;5050713;28;20028;-67
2022/06/26 01:07:12;;;;;;;8.48;3.88;;;14.80;82.80;;;;;;5051016;28;20036;-67
2022/06/26 01:09:39;;;;;;;6.93;3.85;;;14.90;83.50;;;;;;5051007;28;20021;-67
2022/06/26 01:12:07;;;;;;;8.82;3.97;;;15.00;82.90;;;;;;5050257;28;20033;-67
2022/06/26 01:14:35;;;;;;;5.72;3.08;;;15.20;81.30;;;;;;5032938;28;20033;-73
2022/06/26 01:17:02;;;;;;;244.40;47.83;;;15.40;82.30;;;;;;5030301;28;20371;-69
2022/06/26 01:19:30;;;;;;;15.82;5.68;;;15.70;81.20;;;;;;5030367;28;20841;-68
2022/06/26 01:21:57;;;;;;;6.38;4.07;;;15.90;80.30;;;;;;5029730;28;20025;-68
2022/06/26 01:24:25;;;;;;;8.52;4.10;;;16.00;77.30;;;;;;5030751;28;20378;-67
2022/06/26 01:26:52;;;;;;;70.50;20.50;;;16.20;76.10;;;;;;5030302;28;20108;-69
2022/06/26 01:29:19;;;;;;;14.40;5.65;;;16.30;76.50;;;;;;5028839;28;20041;-67
2022/06/26 01:31:47;;;;;;;8.38;3.90;;;16.30;75.80;;;;;;5030129;28;20471;-67
2022/06/26 01:34:15;;;;;;;8.65;3.80;;;16.40;74.10;;;;;;5030159;28;20028;-66
2022/06/26 01:36:42;;;;;;;5.28;3.88;;;16.40;73.60;;;;;;5030516;28;20040;-67
2022/06/26 01:39:10;;;;;;;6.07;3.72;;;16.50;74.50;;;;;;5030605;28;20056;-68
2022/06/26 01:41:37;;;;;;;9.60;4.68;;;16.60;74.90;;;;;;5028678;28;20116;-67
2022/06/26 01:44:07;;;;;;;8.98;4.38;;;16.70;74.50;;;;;;5030039;28;20052;-68
2022/06/26 01:46:34;;;;;;;5.32;3.55;;;16.80;74.10;;;;;;5029949;28;20033;-66
2022/06/26 01:49:02;;;;;;;17.20;4.88;;;16.90;71.90;;;;;;5029943;28;20032;-65
2022/06/26 01:51:29;;;;;;;11.35;4.00;;;17.00;72.70;;;;;;5029990;28;20493;-66
2022/06/26 01:53:56;;;;;;;5.88;3.95;;;17.10;72.70;;;;;;5029832;28;20091;-66
2022/06/26 01:56:23;;;;;;;6.80;3.60;;;17.20;73.20;;;;;;5029793;28;20037;-66
2022/06/26 01:58:51;;;;;;;6.78;4.00;;;17.30;73.30;;;;;;5029764;28;20118;-65
2022/06/26 02:01:18;;;;;;;9.40;4.25;;;17.40;70.80;;;;;;5029820;28;20053;-67
2022/06/26 02:03:45;;;;;;;6.00;4.18;;;17.40;71.00;;;;;;5029918;28;20520;-65
2022/06/26 02:06:13;;;;;;;6.93;4.00;;;17.50;71.20;;;;;;5030299;28;20025;-66
2022/06/26 02:08:40;;;;;;;7.22;4.28;;;17.60;71.10;;;;;;5029575;28;20030;-69
2022/06/26 02:13:54;;;;;;;7.72;3.78;;;17.70;68.70;;;;;;5029513;28;20048;-66
2022/06/26 02:16:23;;;;;;;6.68;4.35;;;17.80;69.80;;;;;;5029356;28;20041;-66
2022/06/26 02:18:54;;;;;;;5.40;3.40;;;17.80;68.70;;;;;;5029760;28;20100;-67
2022/06/26 02:21:24;;;;;;;7.70;4.75;;;18.00;70.60;;;;;;5029432;28;20049;-67
2022/06/26 02:23:52;;;;;;;9.77;4.07;;;18.10;68.70;;;;;;5029680;28;20021;-66
2022/06/26 02:26:20;;;;;;;8.98;5.05;;;18.20;67.90;;;;;;5029466;28;20116;-66
2022/06/26 02:28:49;;;;;;;6.30;4.07;;;18.30;66.80;;;;;;5029502;28;20030;-66
2022/06/26 02:31:17;;;;;;;6.88;4.03;;;18.30;66.20;;;;;;5029605;28;20083;-66
2022/06/26 02:33:44;;;;;;;9.68;4.93;;;18.50;67.50;;;;;;5033818;28;20072;-66
2022/06/26 02:36:11;;;;;;;9.23;4.25;;;18.60;66.80;;;;;;5034080;28;20520;-67
2022/06/26 02:38:38;;;;;;;7.03;4.20;;;18.60;66.00;;;;;;5033357;28;20017;-67
2022/06/26 02:41:06;;;;;;;7.82;4.53;;;18.60;65.60;;;;;;5033526;28;20033;-66
2022/06/26 02:43:34;;;;;;;8.65;4.55;;;18.60;66.30;;;;;;5033406;28;20071;-66
2022/06/26 02:46:02;;;;;;;10.75;5.05;;;18.60;66.20;;;;;;5032166;28;20059;-66
2022/06/26 02:48:30;;;;;;;6.80;4.35;;;18.70;65.10;;;;;;5033271;28;20486;-66
2022/06/26 02:50:57;;;;;;;6.72;4.20;;;18.70;65.90;;;;;;5033151;28;20026;-66
2022/06/26 02:53:24;;;;;;;6.03;3.22;;;18.90;66.20;;;;;;5033293;28;20022;-68
2022/06/26 02:55:51;;;;;;;8.95;4.10;;;19.20;64.70;;;;;;5031740;28;20075;-66
2022/06/26 02:58:19;;;;;;;8.80;4.15;;;19.40;64.80;;;;;;5033118;28;20028;-68
2022/06/26 03:00:47;;;;;;;7.82;3.42;;;19.60;62.40;;;;;;5032979;28;20482;-67
2022/06/26 03:03:14;;;;;;;4.65;2.50;;;19.60;62.50;;;;;;5033528;28;20018;-66
2022/06/26 03:05:41;;;;;;;3.40;2.15;;;19.70;60.00;;;;;;5033561;28;20036;-65
2022/06/26 03:08:08;;;;;;;2.38;1.38;;;19.80;59.70;;;;;;5033115;28;20025;-66
2022/06/26 03:10:36;;;;;;;3.08;1.60;;;19.80;57.40;;;;;;5031563;28;20028;-66
2022/06/26 03:13:03;;;;;;;5.32;1.75;;;20.00;56.30;;;;;;5032763;28;20052;-66
2022/06/26 03:15:31;;;;;;;7.25;2.25;;;20.00;57.00;;;;;;5032851;28;20115;-66
2022/06/26 03:17:59;;;;;;;3.88;1.70;;;20.20;57.20;;;;;;5032827;28;20040;-65
2022/06/26 03:20:26;;;;;;;4.28;1.40;;;20.30;56.30;;;;;;5031479;28;20044;-66
2022/06/26 03:22:54;;;;;;;2.30;0.82;;;20.40;54.60;;;;;;5032662;28;20037;-66
2022/06/26 03:25:21;;;;;;;2.58;1.23;;;20.60;53.70;;;;;;5032686;28;20076;-66
2022/06/26 03:27:49;;;;;;;2.53;1.20;;;20.70;53.10;;;;;;5032627;28;20021;-66
2022/06/26 03:30:16;;;;;;;2.60;1.17;;;20.90;53.30;;;;;;5032637;28;20017;-66
2022/06/26 03:32:44;;;;;;;6.45;0.77;;;21.00;53.00;;;;;;5033013;28;20022;-66
2022/06/26 03:35:11;;;;;;;2.65;1.10;;;20.90;50.10;;;;;;5032801;28;20052;-66
2022/06/26 03:37:39;;;;;;;2.85;1.02;;;20.90;50.70;;;;;;5032390;28;20033;-67
2022/06/26 03:40:07;;;;;;;2.97;1.25;;;20.80;51.60;;;;;;5032503;28;20025;-67
2022/06/26 03:42:34;;;;;;;2.58;1.10;;;20.80;51.40;;;;;;5032258;28;20021;-67
2022/06/26 03:45:01;;;;;;;2.75;0.80;;;20.70;51.70;;;;;;5031647;28;20108;-67
2022/06/26 03:47:28;;;;;;;2.83;1.00;;;20.60;52.60;;;;;;5032246;28;20029;-66
2022/06/26 03:49:56;;;;;;;2.30;0.80;;;20.50;50.40;;;;;;5032284;28;20075;-67
2022/06/26 03:52:24;;;;;;;2.17;0.93;;;20.50;51.80;;;;;;5032286;28;20017;-66
2022/06/26 03:54:51;;;;;;;1.90;0.70;;;20.40;51.60;;;;;;5032048;28;20029;-65
2022/06/26 03:57:19;;;;;;;5.07;0.98;;;20.40;51.30;;;;;;5031852;28;20437;-65
2022/06/26 03:59:46;;;;;;;1.80;0.90;;;20.40;52.40;;;;;;5030914;28;20030;-67
2022/06/26 04:02:13;;;;;;;2.70;1.00;;;20.40;52.80;;;;;;5030906;28;20033;-68
2022/06/26 04:04:41;;;;;;;2.60;1.30;;;20.50;53.00;;;;;;5031945;28;20017;-69
2022/06/26 04:07:08;;;;;;;5.60;1.45;;;20.50;53.90;;;;;;5030593;28;20052;-69
2022/06/26 04:09:35;;;;;;;1.73;1.02;;;20.60;54.00;;;;;;5035315;28;20021;-68
2022/06/26 04:12:02;;;;;;;2.55;0.90;;;20.60;51.70;;;;;;5040355;28;20386;-66
2022/06/26 04:14:29;;;;;;;2.35;1.33;;;20.70;51.50;;;;;;5043354;28;20482;-68
2022/06/26 04:16:57;;;;;;;4.60;1.52;;;20.70;50.50;;;;;;5034534;28;20064;-67
2022/06/26 04:19:24;;;;;;;3.15;1.33;;;20.70;49.80;;;;;;5037830;28;20025;-66
2022/06/26 04:21:51;;;;;;;4.65;1.20;;;20.60;51.00;;;;;;5039032;28;20108;-66
2022/06/26 04:24:18;;;;;;;6.45;3.10;;;20.60;51.80;;;;;;5042096;28;20051;-71
2022/06/26 04:26:46;;;;;;;3.15;1.25;;;20.50;49.80;;;;;;5050946;28;20044;-70
2022/06/26 04:29:13;;;;;;;2.60;0.85;;;20.40;49.50;;;;;;5037896;28;20052;-68
2022/06/26 04:31:40;;;;;;;1.50;0.80;;;20.20;49.70;;;;;;5034512;28;20486;-67
2022/06/26 04:34:07;;;;;;;1.80;0.68;;;20.00;50.80;;;;;;5031763;28;20646;-68
2022/06/26 04:36:35;;;;;;;1.95;0.80;;;20.00;49.60;;;;;;5039370;28;20029;-67
2022/06/26 04:39:02;;;;;;;6.00;3.35;;;19.80;49.70;;;;;;5030711;28;20064;-67
2022/06/26 04:41:34;;;;;;;1.83;0.60;;;19.80;50.30;;;;;;5037660;28;20118;-67
2022/06/26 04:44:06;;;;;;;1.70;0.68;;;19.60;49.50;;;;;;5041223;28;20030;-68
2022/06/26 04:46:35;;;;;;;2.72;0.60;;;19.50;49.70;;;;;;5030731;28;20083;-67
2022/06/26 04:49:03;;;;;;;4.35;0.70;;;19.40;50.90;;;;;;5028030;28;20096;-67
2022/06/26 04:51:30;;;;;;;0.93;0.60;;;19.20;51.40;;;;;;5028447;28;20151;-67
2022/06/26 04:53:58;;;;;;;1.65;0.70;;;19.10;52.00;;;;;;5031764;28;20477;-67
2022/06/26 04:56:25;;;;;;;5.22;0.88;;;19.10;52.70;;;;;;5028364;28;20033;-67
2022/06/26 04:58:54;;;;;;;1.98;0.80;;;19.00;52.30;;;;;;5046377;28;20032;-67
2022/06/26 05:01:21;;;;;;;2.20;0.50;;;18.90;52.70;;;;;;5033408;28;20021;-66
2022/06/26 05:03:48;;;;;;;1.80;0.75;;;18.90;52.30;;;;;;5032751;28;20029;-66
2022/06/26 05:06:16;;;;;;;1.95;0.98;;;18.80;52.90;;;;;;5028065;28;20155;-72
2022/06/26 05:08:43;;;;;;;2.63;0.70;;;18.80;52.90;;;;;;5031717;28;20056;-70
2022/06/26 05:11:11;;;;;;;3.35;0.80;;;18.70;54.00;;;;;;5044108;28;20489;-69
2022/06/26 05:13:38;;;;;;;2.95;0.68;;;18.60;54.30;;;;;;5037276;28;20443;-65
2022/06/26 05:16:06;;;;;;;3.60;1.10;;;18.50;55.10;;;;;;5037652;28;20025;-67
2022/06/26 05:18:33;;;;;;;2.40;1.27;;;18.40;56.00;;;;;;5030526;28;20025;-67
2022/06/26 05:21:00;;;;;;;3.35;1.02;;;18.30;56.50;;;;;;5042227;28;20107;-67
2022/06/26 05:23:27;;;;;;;2.10;0.90;;;18.30;56.80;;;;;;5032700;28;20100;-67
2022/06/26 05:25:55;;;;;;;5.20;1.65;;;18.30;57.40;;;;;;5034710;28;20110;-67
2022/06/26 05:28:22;;;;;;;3.78;1.80;;;18.20;57.30;;;;;;5043321;28;20425;-67
2022/06/26 05:30:49;;;;;;;1.75;0.88;;;18.10;57.90;;;;;;5033908;28;20025;-66
2022/06/26 05:33:16;;;;;;;3.25;1.83;;;18.10;57.00;;;;;;5037679;28;20018;-67
2022/06/26 05:35:44;;;;;;;3.03;1.48;;;17.90;58.40;;;;;;5033245;28;20087;-66
2022/06/26 05:38:11;;;;;;;1.95;0.88;;;17.90;59.10;;;;;;5041874;28;20087;-66
2022/06/26 05:40:38;;;;;;;2.40;1.10;;;17.80;60.10;;;;;;5044643;28;20507;-67
2022/06/26 05:43:05;;;;;;;7.55;1.10;;;17.80;60.50;;;;;;5036526;28;20116;-67
2022/06/26 05:45:32;;;;;;;3.28;1.30;;;17.80;59.80;;;;;;5035947;28;20025;-66
2022/06/26 05:48:00;;;;;;;2.63;1.15;;;17.70;60.00;;;;;;5046136;28;20068;-66
2022/06/26 05:50:27;;;;;;;1.33;0.95;;;17.70;59.70;;;;;;5044251;28;20025;-67
2022/06/26 05:52:55;;;;;;;1.63;0.93;;;17.60;59.70;;;;;;5041605;28;20544;-67
2022/06/26 05:55:22;;;;;;;2.90;1.05;;;17.40;60.50;;;;;;5038303;28;20018;-67
2022/06/26 05:57:49;;;;;;;6.68;1.92;;;17.20;61.80;;;;;;5039601;28;20037;-67
2022/06/26 06:00:17;;;;;;;5.18;1.83;;;17.10;63.10;;;;;;5047712;28;20021;-67
2022/06/26 06:02:44;;;;;;;4.13;1.75;;;16.90;64.60;;;;;;5028134;28;20036;-67
2022/06/26 06:05:12;;;;;;;2.55;1.40;;;16.70;65.50;;;;;;5033382;28;20201;-67
2022/06/26 06:07:39;;;;;;;2.70;1.20;;;16.60;66.50;;;;;;5043404;28;20028;-66
2022/06/26 06:10:08;;;;;;;4.03;1.40;;;16.40;65.80;;;;;;5030266;28;20025;-65
2022/06/26 06:12:37;;;;;;;3.13;1.73;;;16.30;66.40;;;;;;5026534;28;20148;-65
2022/06/26 06:15:05;;;;;;;3.13;1.50;;;16.10;67.00;;;;;;5026949;28;20134;-66
2022/06/26 06:17:36;;;;;;;2.78;1.45;;;16.00;67.30;;;;;;5033519;28;20123;-66
2022/06/26 06:20:12;;;;;;;3.85;1.52;;;15.90;67.80;;;;;;5047073;28;20034;-66
2022/06/26 06:22:45;;;;;;;2.75;1.45;;;15.70;68.00;;;;;;5026627;28;20029;-66
2022/06/26 06:25:13;;;;;;;3.42;1.58;;;15.60;68.10;;;;;;5033943;28;20024;-66
2022/06/26 06:27:42;;;;;;;2.85;1.80;;;15.50;68.40;;;;;;5030414;28;20398;-67
2022/06/26 06:30:11;;;;;;;3.03;1.80;;;15.40;69.10;;;;;;5030709;28;20025;-66
2022/06/26 06:32:40;;;;;;;2.97;1.55;;;15.20;68.80;;;;;;5036194;28;20032;-66
2022/06/26 06:35:09;;;;;;;6.22;2.33;;;15.10;69.70;;;;;;5047059;28;20018;-66
2022/06/26 06:37:36;;;;;;;3.15;2.03;;;14.90;70.00;;;;;;5038084;28;20172;-67
2022/06/26 06:40:04;;;;;;;6.10;1.88;;;14.70;70.50;;;;;;5032878;28;20041;-66
2022/06/26 06:42:31;;;;;;;4.70;1.95;;;14.60;72.90;;;;;;5026960;28;20498;-67
2022/06/26 06:44:58;;;;;;;3.25;1.63;;;14.50;72.40;;;;;;5030609;28;20025;-67
2022/06/26 06:47:26;;;;;;;3.42;1.73;;;14.40;72.50;;;;;;5029501;28;20895;-66
2022/06/26 06:49:53;;;;;;;4.10;1.98;;;14.20;72.80;;;;;;5043566;28;20030;-66
2022/06/26 06:52:20;;;;;;;3.22;1.73;;;14.00;73.40;;;;;;5027548;28;20039;-67
2022/06/26 06:54:47;;;;;;;2.67;1.38;;;13.80;73.70;;;;;;5034726;28;20032;-66
2022/06/26 06:57:15;;;;;;;4.93;2.15;;;13.70;74.10;;;;;;5044593;28;20599;-68
2022/06/26 06:59:42;;;;;;;6.88;4.00;;;13.50;74.70;;;;;;5032135;28;20404;-66
2022/06/26 07:02:09;;;;;;;12.10;5.25;;;13.30;75.50;;;;;;5029438;28;20067;-66
2022/06/26 07:04:37;;;;;;;5.60;3.30;;;13.20;76.50;;;;;;5031073;28;20039;-63
2022/06/26 07:07:04;;;;;;;13.05;6.40;;;13.10;76.90;;;;;;5033037;28;20043;-65
2022/06/26 07:09:32;;;;;;;16.70;10.30;;;12.90;77.90;;;;;;5030926;28;20119;-65
2022/06/26 07:11:59;;;;;;;20.10;12.25;;;12.90;78.60;;;;;;5038238;28;20082;-65
2022/06/26 07:14:26;;;;;;;19.60;12.25;;;12.70;78.80;;;;;;5029938;28;20017;-65
2022/06/26 07:16:54;;;;;;;18.92;11.48;;;12.60;79.10;;;;;;5028526;28;20099;-65
2022/06/26 07:19:22;;;;;;;20.58;11.65;;;12.50;80.00;;;;;;5034284;28;20025;-65
2022/06/26 07:21:49;;;;;;;17.80;10.45;;;12.40;80.50;;;;;;5039781;28;20039;-65
2022/06/26 07:24:16;;;;;;;15.88;8.98;;;12.30;81.60;;;;;;5036501;28;20428;-65
2022/06/26 07:26:43;;;;;;;27.00;12.93;;;12.20;82.40;;;;;;5043115;28;20026;-64
2022/06/26 07:29:13;;;;;;;20.33;10.65;;;12.10;83.10;;;;;;5041921;28;20025;-65
2022/06/26 07:31:41;;;;;;;15.73;8.38;;;12.10;83.80;;;;;;5036875;28;20455;-65
2022/06/26 07:34:15;;;;;;;14.73;9.13;;;12.20;84.10;;;;;;5038433;28;20102;-64
2022/06/26 07:36:43;;;;;;;20.13;10.50;;;12.20;83.90;;;;;;5034757;28;20880;-65
2022/06/26 07:39:12;;;;;;;11.88;6.90;;;12.30;84.10;;;;;;5048685;28;20035;-64
2022/06/26 07:41:41;;;;;;;12.00;8.00;;;12.30;83.50;;;;;;5037664;28;20112;-65
2022/06/26 07:44:08;;;;;;;11.77;8.15;;;12.30;83.40;;;;;;5039538;28;20541;-65
2022/06/26 07:46:37;;;;;;;22.15;13.25;;;12.40;83.70;;;;;;5042998;28;20089;-65
2022/06/26 07:49:05;;;;;;;24.42;14.13;;;12.30;84.00;;;;;;5048521;28;20029;-65
2022/06/26 07:51:34;;;;;;;18.33;10.95;;;12.40;84.30;;;;;;5040576;28;20507;-65
2022/06/26 07:54:01;;;;;;;27.88;14.13;;;12.30;84.50;;;;;;5032496;28;20064;-64
2022/06/26 07:56:29;;;;;;;27.45;12.15;;;12.30;84.30;;;;;;5044291;28;20407;-64
2022/06/26 07:58:56;;;;;;;27.17;12.77;;;12.30;84.40;;;;;;5034879;28;20032;-64
2022/06/26 08:01:24;;;;;;;17.63;9.13;;;12.20;84.50;;;;;;5038713;28;20025;-64
2022/06/26 08:03:51;;;;;;;15.93;7.25;;;12.20;85.00;;;;;;5039015;28;20036;-64
2022/06/26 08:06:19;;;;;;;11.10;7.22;;;12.20;86.30;;;;;;5033903;28;20101;-68
2022/06/26 08:08:46;;;;;;;14.57;8.00;;;12.20;86.30;;;;;;5036990;28;20115;-64
2022/06/26 08:11:14;;;;;;;15.45;8.35;;;12.20;86.70;;;;;;5036423;28;20052;-64
2022/06/26 08:13:41;;;;;;;16.58;8.15;;;12.20;86.80;;;;;;5038441;28;20021;-64
2022/06/26 08:16:12;;;;;;;11.88;7.68;;;12.10;86.70;;;;;;5032791;28;20630;-65
2022/06/26 08:18:39;;;;;;;12.38;7.20;;;12.10;87.90;;;;;;5029930;28;20037;-64
2022/06/26 08:23:53;;;;;;;14.73;8.52;;;12.10;88.90;;;;;;5035904;28;20051;-65
2022/06/26 08:26:20;;;;;;;14.88;8.65;;;12.10;89.40;;;;;;5034642;28;20034;-64
2022/06/26 08:28:47;;;;;;;14.68;8.30;;;12.00;90.10;;;;;;5034147;28;20033;-64
2022/06/26 08:31:15;;;;;;;15.65;8.85;;;12.10;90.60;;;;;;5041102;28;20498;-65
2022/06/26 08:33:42;;;;;;;13.50;7.75;;;12.10;90.70;;;;;;5040428;28;20025;-65
2022/06/26 08:36:10;;;;;;;12.10;8.00;;;12.10;90.50;;;;;;5033044;28;20072;-65
2022/06/26 08:38:39;;;;;;;17.58;7.80;;;12.00;90.30;;;;;;5036021;28;20060;-65
2022/06/26 08:41:09;;;;;;;13.93;8.23;;;11.90;90.30;;;;;;5040142;28;20028;-65
2022/06/26 08:43:40;;;;;;;16.13;8.70;;;11.90;90.50;;;;;;5029719;28;20497;-65
2022/06/26 08:46:08;;;;;;;15.95;9.75;;;11.80;90.90;;;;;;5034506;28;20549;-65
2022/06/26 08:48:43;;;;;;;18.45;9.77;;;11.80;91.50;;;;;;5032399;28;20026;-64
2022/06/26 08:51:11;;;;;;;14.50;8.68;;;11.80;91.60;;;;;;5042049;28;20032;-65
2022/06/26 08:53:43;;;;;;;16.13;9.10;;;11.80;91.40;;;;;;5040580;28;20033;-65
2022/06/26 08:56:11;;;;;;;17.25;8.90;;;11.70;91.40;;;;;;5037618;28;20045;-65
2022/06/26 08:58:38;;;;;;;16.95;9.18;;;11.70;91.70;;;;;;5034694;28;20079;-65
2022/06/26 09:01:07;;;;;;;15.32;9.48;;;11.70;92.30;;;;;;5032755;28;20021;-65
2022/06/26 09:03:35;;;;;;;18.88;8.73;;;11.70;92.20;;;;;;5043191;28;20033;-65
2022/06/26 09:06:03;;;;;;;15.63;8.38;;;11.80;92.40;;;;;;5043488;28;20034;-65
2022/06/26 09:08:31;;;;;;;12.48;6.97;;;11.80;92.30;;;;;;5041217;28;20024;-65
2022/06/26 09:10:58;;;;;;;14.70;6.82;;;11.90;92.20;;;;;;5045686;28;20428;-65
2022/06/26 09:13:37;;;;;;;8.85;6.07;;;11.90;91.70;;;;;;5038733;28;20032;-64
2022/06/26 09:16:05;;;;;;;11.38;5.78;;;11.90;91.90;;;;;;5028052;28;20041;-65
2022/06/26 09:18:37;;;;;;;15.52;6.03;;;11.90;92.00;;;;;;5030290;28;20048;-65
2022/06/26 09:21:06;;;;;;;14.23;6.60;;;11.90;92.10;;;;;;5039476;28;20070;-64
2022/06/26 09:23:35;;;;;;;8.70;5.05;;;11.90;91.80;;;;;;5035367;28;20394;-64
2022/06/26 09:26:03;;;;;;;12.13;5.75;;;11.90;91.50;;;;;;5044026;28;20033;-65
2022/06/26 09:28:31;;;;;;;8.57;4.63;;;11.90;91.90;;;;;;5027838;28;20453;-65
2022/06/26 09:31:06;;;;;;;7.03;4.57;;;11.90;92.20;;;;;;5033699;28;20079;-65
2022/06/26 09:33:35;;;;;;;7.50;4.05;;;11.90;91.90;;;;;;5042866;28;20044;-65
2022/06/26 09:36:05;;;;;;;7.53;3.72;;;11.90;91.60;;;;;;5045370;28;20033;-64
2022/06/26 09:38:38;;;;;;;8.13;4.30;;;11.90;91.70;;;;;;5036561;28;20029;-64
2022/06/26 09:41:08;;;;;;;9.63;4.27;;;11.90;91.50;;;;;;5038825;28;20499;-65
2022/06/26 09:43:41;;;;;;;6.88;3.63;;;11.90;91.50;;;;;;5047218;28;20056;-65
2022/06/26 09:46:11;;;;;;;6.80;3.50;;;11.90;91.50;;;;;;5033403;28;20460;-65
2022/06/26 09:48:40;;;;;;;5.65;3.15;;;11.90;91.50;;;;;;5047652;28;20227;-65
2022/06/26 09:51:09;;;;;;;7.53;3.50;;;12.00;91.40;;;;;;5047452;28;20035;-65
2022/06/26 09:53:40;;;;;;;7.45;3.90;;;12.00;91.40;;;;;;5026874;28;20034;-64
2022/06/26 09:56:09;;;;;;;5.85;2.97;;;12.00;91.00;;;;;;5039058;28;20037;-64
2022/06/26 09:58:36;;;;;;;7.57;3.35;;;12.00;90.90;;;;;;5031105;28;20078;-64
2022/06/26 10:06:36;;;;;;;4.70;1.90;;;12.30;89.60;;;;;;5047847;28;20036;-65
2022/06/26 10:09:06;;;;;;;3.67;1.75;;;12.40;88.50;;;;;;5055368;28;20040;-64
2022/06/26 10:11:37;;;;;;;2.78;1.90;;;12.40;87.30;;;;;;5041175;28;20035;-64
2022/06/26 10:14:32;;;;;;;4.40;1.77;;;12.30;86.80;;;;;;5039066;28;20017;-64
2022/06/26 10:17:16;;;;;;;;;;;12.30;87.30;;;;;;5044365;28;20041;-63
2022/06/26 10:19:51;;;;;;;3.92;2.15;;;12.20;89.10;;;;;;5045401;28;19909;-64
2022/06/26 10:22:19;;;;;;;3.72;1.92;;;12.10;88.90;;;;;;5036566;28;20023;-65
2022/06/26 10:24:57;;;;;;;3.47;1.90;;;12.10;89.40;;;;;;5030515;28;20091;-65
2022/06/26 10:27:33;;;;;;;2.38;1.58;;;12.10;89.60;;;;;;5041924;28;20130;-65
2022/06/26 10:30:15;;;;;;;5.38;1.70;;;12.10;89.40;;;;;;5031265;28;20124;-65
2022/06/26 10:32:43;;;;;;;3.53;1.55;;;12.10;89.50;;;;;;5029306;28;20025;-66
2022/06/26 10:35:12;;;;;;;3.15;1.90;;;11.90;89.40;;;;;;5034826;28;20048;-65
2022/06/26 10:37:46;;;;;;;3.28;1.83;;;11.90;90.00;;;;;;5031721;28;20037;-64
2022/06/26 10:43:06;;;;;;;3.78;1.95;;;11.80;90.50;;;;;;5040666;28;20370;-65
2022/06/26 10:45:38;;;;;;;5.53;2.13;;;11.70;90.80;;;;;;5025665;28;20025;-64
2022/06/26 10:48:23;;;;;;;2.63;1.30;;;11.70;91.10;;;;;;5034152;28;20052;-65
2022/06/26 10:51:23;;;;;;;3.05;1.65;;;11.60;90.40;;;;;;5046283;28;20033;-62
2022/06/26 10:53:50;;;;;;;5.63;1.83;;;11.50;90.60;;;;;;5029755;28;20045;-64
2022/06/26 10:56:17;;;;;;;3.53;1.85;;;11.40;90.60;;;;;;5032371;28;20364;-65
2022/06/26 10:58:46;;;;;;;4.82;1.77;;;11.30;90.90;;;;;;5042950;28;20064;-65
2022/06/26 11:01:14;;;;;;;4.75;1.40;;;11.20;91.60;;;;;;5045944;28;20021;-66
2022/06/26 11:03:42;;;;;;;5.05;1.98;;;11.20;91.70;;;;;;5050313;28;20086;-66
2022/06/26 11:06:11;;;;;;;8.13;1.67;;;11.10;91.70;;;;;;5033331;28;20055;-64
2022/06/26 11:08:40;;;;;;;4.95;1.65;;;11.10;91.70;;;;;;5036551;28;20033;-65
2022/06/26 11:11:09;;;;;;;4.00;1.40;;;11.00;92.00;;;;;;5036634;28;20445;-66
2022/06/26 11:13:49;;;;;;;1.80;1.10;;;11.00;92.00;;;;;;5041564;28;20021;-66
2022/06/26 11:16:17;;;;;;;2.38;1.25;;;11.00;91.80;;;;;;5038092;28;20064;-66
2022/06/26 11:18:44;;;;;;;2.72;1.27;;;10.90;91.80;;;;;;5042235;28;20103;-66
2022/06/26 11:21:12;;;;;;;2.53;1.02;;;10.80;91.80;;;;;;5042807;28;20029;-66
2022/06/26 11:23:40;;;;;;;4.35;1.60;;;10.70;91.90;;;;;;5037984;28;20013;-65
2022/06/26 11:26:09;;;;;;;2.45;1.23;;;10.60;92.10;;;;;;5043052;28;20039;-66
2022/06/26 11:28:40;;;;;;;3.75;1.70;;;10.60;92.40;;;;;;5041863;28;20033;-65
2022/06/26 11:31:11;;;;;;;3.85;1.17;;;10.60;92.40;;;;;;5031558;28;20482;-64
2022/06/26 11:33:43;;;;;;;3.00;1.20;;;10.70;92.30;;;;;;5036133;28;20026;-65
2022/06/26 11:36:13;;;;;;;5.93;1.60;;;10.80;91.90;;;;;;5039098;28;20110;-65
2022/06/26 11:38:50;;;;;;;3.30;1.20;;;10.80;91.80;;;;;;5041083;28;20028;-66
2022/06/26 11:41:17;;;;;;;3.13;1.50;;;10.90;92.10;;;;;;5036804;28;20028;-65
2022/06/26 11:43:55;;;;;;;2.92;1.15;;;10.90;92.00;;;;;;5045512;28;20124;-66
2022/06/26 11:46:23;;;;;;;3.10;1.63;;;10.80;91.70;;;;;;5038823;28;20401;-66
2022/06/26 11:48:52;;;;;;;4.07;2.00;;;10.70;91.70;;;;;;5035191;28;20559;-66
2022/06/26 11:51:22;;;;;;;6.00;1.83;;;10.70;91.80;;;;;;5046224;28;20037;-66
2022/06/26 11:53:52;;;;;;;3.65;1.45;;;10.70;91.80;;;;;;5046905;28;20021;-66
2022/06/26 11:56:24;;;;;;;1.95;1.20;;;10.80;91.60;;;;;;5046518;28;20033;-66
2022/06/26 11:58:54;;;;;;;2.67;1.35;;;10.80;91.00;;;;;;5032271;28;20088;-66
2022/06/26 12:01:30;;;;;;;3.00;1.02;;;10.90;90.80;;;;;;5040814;28;20572;-66
2022/06/26 12:04:00;;;;;;;2.88;1.15;;;10.90;90.30;;;;;;5039007;28;20040;-66
2022/06/26 12:06:31;;;;;;;3.22;0.85;;;10.90;88.90;;;;;;5046973;28;20033;-66
2022/06/26 12:09:01;;;;;;;4.00;1.38;;;11.00;88.70;;;;;;5042318;28;20487;-67
2022/06/26 12:11:28;;;;;;;7.82;1.15;;;11.00;88.60;;;;;;5027150;28;20509;-67
2022/06/26 12:13:56;;;;;;;1.92;0.90;;;11.00;88.40;;;;;;5030521;28;20072;-67
2022/06/26 12:16:23;;;;;;;4.38;2.22;;;11.00;88.20;;;;;;5043704;28;20064;-67
2022/06/26 12:18:51;;;;;;;6.85;1.00;;;11.00;88.20;;;;;;5046446;28;20515;-66
2022/06/26 12:21:23;;;;;;;3.65;1.20;;;10.90;88.20;;;;;;5044099;28;20031;-65
2022/06/26 12:23:52;;;;;;;2.50;1.00;;;10.80;88.50;;;;;;5038993;28;20409;-65
2022/06/26 12:26:23;;;;;;;2.70;0.95;;;10.70;89.60;;;;;;5032795;28;20021;-66
2022/06/26 12:28:58;;;;;;;4.10;1.30;;;10.60;90.10;;;;;;5036474;28;20543;-65
2022/06/26 12:31:25;;;;;;;4.07;1.13;;;10.60;90.30;;;;;;5032995;28;20025;-65
2022/06/26 12:33:56;;;;;;;4.45;1.10;;;10.60;90.00;;;;;;5038483;28;20063;-65
2022/06/26 12:36:23;;;;;;;2.88;0.88;;;10.60;89.80;;;;;;5038388;28;20037;-64
2022/06/26 12:38:54;;;;;;;2.47;1.10;;;10.50;89.70;;;;;;5039140;28;20029;-65
2022/06/26 12:41:21;;;;;;;3.15;1.10;;;10.40;90.00;;;;;;5035954;28;20448;-66
2022/06/26 12:43:51;;;;;;;3.80;1.42;;;10.40;90.40;;;;;;5036431;28;20032;-66
2022/06/26 12:46:19;;;;;;;3.13;1.23;;;10.30;90.50;;;;;;5030206;28;20026;-64
2022/06/26 12:48:50;;;;;;;2.75;1.00;;;10.20;90.40;;;;;;5046021;28;20025;-65
2022/06/26 12:51:21;;;;;;;3.13;1.10;;;10.10;90.60;;;;;;5027387;28;20107;-65
2022/06/26 12:53:52;;;;;;;2.63;1.30;;;10.10;91.30;;;;;;5039488;28;20065;-66
2022/06/26 12:56:20;;;;;;;5.30;2.42;;;10.10;91.30;;;;;;5029463;28;20072;-65
2022/06/26 12:58:50;;;;;;;5.95;1.38;;;10.00;91.40;;;;;;5033353;28;20678;-65
2022/06/26 13:01:18;;;;;;;3.22;1.30;;;10.10;91.40;;;;;;5026452;28;20084;-66
2022/06/26 13:03:46;;;;;;;3.63;1.23;;;10.10;91.20;;;;;;5033372;28;20037;-64
2022/06/26 13:06:16;;;;;;;3.65;1.30;;;10.20;90.80;;;;;;5043438;28;20091;-65